Aegean Orion — SVA2487 — position and weather

sailwx.info

Track history (hours):
 
Tides and Currents Weather Stations Pressure Air Temp Water Temp Dewpoint Dewpoint Depression Visibility Wind Speed Wind Dir Waves Ship Positions

Aegean Orion

Last reported at 2015-Mar-27 13:06 UTC. Time now 2015-Mar-28 01:54 UTC.
Position N 38°02' E 023°32'.

; draft 2.4 m.

Type: Ship. MMSI: 239550200.

Date/timePositionNaut miles runAvg speedWind from/ knotsBaromVisibWave heightAir tempDewpointWater temp
2015-Mar-27 13:06N 38°02' E 023°32'1 2.2
2015-Mar-27 12:33N 38°01' E 023°32'4 4.3
2015-Mar-27 11:33N 37°57' E 023°34'0 0.0
2015-Mar-27 10:33N 37°57' E 023°34'4 4.4
2015-Mar-27 09:33N 38°01' E 023°34'1 1.1
2015-Mar-27 08:33N 38°02' E 023°35'3 0.2
2015-Mar-26 16:32N 38°02' E 023°32'6 6.1
2015-Mar-26 15:32N 37°57' E 023°36'2 2.0
2015-Mar-26 14:33N 37°57' E 023°38'0 0.0
2015-Mar-26 13:33N 37°57' E 023°38'0 0.0
2015-Mar-26 12:33N 37°57' E 023°38'0 0.0
2015-Mar-26 11:33N 37°57' E 023°38'1 0.7
2015-Mar-26 10:33N 37°56' E 023°37'0 0.0
2015-Mar-26 09:33N 37°56' E 023°37'0 0.0
2015-Mar-26 08:32N 37°56' E 023°37'3 0.1
2015-Mar-25 04:28N 37°57' E 023°33'1 0.9
2015-Mar-25 03:33N 37°57' E 023°34'0 0.0
2015-Mar-25 02:33N 37°57' E 023°34'0 0.1
2015-Mar-25 01:33N 37°57' E 023°34'0 0.0
2015-Mar-25 00:33N 37°57' E 023°34'3 3.0
2015-Mar-24 23:26N 37°57' E 023°38'1 0.3
2015-Mar-24 21:33N 37°56' E 023°38'3 3.2
2015-Mar-24 20:33N 37°57' E 023°34'0 0.0
2015-Mar-24 19:33N 37°57' E 023°34'0 0.0
2015-Mar-24 18:33N 37°57' E 023°34'0 0.0
2015-Mar-24 17:33N 37°57' E 023°34'0 0.0
2015-Mar-24 16:33N 37°57' E 023°34'0 0.0
2015-Mar-24 15:33N 37°57' E 023°34'1 0.1
2015-Mar-23 15:29N 37°58' E 023°33'4 2.0
2015-Mar-23 13:18N 37°57' E 023°38'1 2.0
2015-Mar-23 12:33N 37°56' E 023°37'7 0.2
2015-Mar-22 08:21N 38°02' E 023°32'2 0.6
2015-Mar-22 04:33N 38°00' E 023°33'3 2.9
2015-Mar-22 03:31N 37°57' E 023°34'0 0.0
2015-Mar-22 02:33N 37°57' E 023°34'0 0.0
2015-Mar-22 01:31N 37°57' E 023°34'0 0.0
2015-Mar-22 00:33N 37°57' E 023°34'3 3.1
2015-Mar-21 23:34N 37°56' E 023°38'0 0.2
2015-Mar-21 21:32N 37°57' E 023°38'3 3.4
2015-Mar-21 20:34N 37°57' E 023°34'0 0.0
2015-Mar-21 19:33N 37°57' E 023°34'0 0.0
2015-Mar-21 18:33N 37°57' E 023°34'0 0.0
2015-Mar-21 17:33N 37°57' E 023°34'0 0.0
2015-Mar-21 16:33N 37°57' E 023°34'5 5.0
2015-Mar-21 15:30N 38°02' E 023°32'0 0.0
2015-Mar-20 09:25N 38°02' E 023°32'5 0.3
2015-Mar-19 15:08N 37°58' E 023°33'4 7.1
2015-Mar-19 14:33N 37°57' E 023°38'0 0.0
2015-Mar-19 13:09N 37°57' E 023°38'3 4.8
2015-Mar-19 12:33N 37°57' E 023°35'0 0.3
2015-Mar-19 11:32N 37°57' E 023°35'0 0.0
2015-Mar-19 10:33N 37°57' E 023°35'0 0.0
2015-Mar-19 09:33N 37°57' E 023°35'0 0.0
2015-Mar-19 08:32N 37°57' E 023°35'0 0.0
2015-Mar-19 07:33N 37°57' E 023°35'0 0.0
2015-Mar-19 06:33N 37°57' E 023°35'0 0.0
2015-Mar-19 05:26N 37°57' E 023°35'0 0.0
2015-Mar-19 04:29N 37°57' E 023°35'0 0.0
2015-Mar-19 03:33N 37°57' E 023°35'0 0.0
2015-Mar-19 02:31N 37°57' E 023°35'0 0.0
2015-Mar-19 01:33N 37°57' E 023°35'1 0.7
2015-Mar-19 00:32N 37°57' E 023°35'1 0.4
2015-Mar-18 21:33N 37°56' E 023°37'2 1.7
2015-Mar-18 20:29N 37°57' E 023°35'0 0.0
2015-Mar-18 19:29N 37°57' E 023°35'0 0.0
2015-Mar-18 18:32N 37°57' E 023°35'0 0.0
2015-Mar-18 17:33N 37°57' E 023°35'0 0.0
2015-Mar-18 16:33N 37°57' E 023°35'0 0.0
2015-Mar-18 15:32N 37°57' E 023°35'0 0.0
2015-Mar-18 14:33N 37°57' E 023°35'5 3.6
2015-Mar-18 13:12N 38°02' E 023°32'0 0.0
2015-Mar-18 12:20N 38°02' E 023°32'1 0.4
2015-Mar-18 09:31N 38°02' E 023°34'1 0.3
2015-Mar-18 05:33N 38°02' E 023°32'  
Track history (hours):
 
Tides and Currents Weather Stations Pressure Air Temp Water Temp Dewpoint Dewpoint Depression Visibility Wind Speed Wind Dir Waves Ship Positions

Aegean Orion

Last reported at 2015-Mar-27 13:06 UTC. Time now 2015-Mar-28 01:54 UTC.
Position N 38°02' E 023°32'.

; draft 2.4 m.

Type: Ship. MMSI: 239550200.

Date/timePositionNaut miles runAvg speedWind from/ knotsBaromVisibWave heightAir tempDewpointWater temp
2015-Mar-27 13:06N 38°02' E 023°32'1 2.2
2015-Mar-27 12:33N 38°01' E 023°32'4 4.3
2015-Mar-27 11:33N 37°57' E 023°34'0 0.0
2015-Mar-27 10:33N 37°57' E 023°34'4 4.4
2015-Mar-27 09:33N 38°01' E 023°34'1 1.1
2015-Mar-27 08:33N 38°02' E 023°35'3 0.2
2015-Mar-26 16:32N 38°02' E 023°32'6 6.1
2015-Mar-26 15:32N 37°57' E 023°36'2 2.0
2015-Mar-26 14:33N 37°57' E 023°38'0 0.0
2015-Mar-26 13:33N 37°57' E 023°38'0 0.0
2015-Mar-26 12:33N 37°57' E 023°38'0 0.0
2015-Mar-26 11:33N 37°57' E 023°38'1 0.7
2015-Mar-26 10:33N 37°56' E 023°37'0 0.0
2015-Mar-26 09:33N 37°56' E 023°37'0 0.0
2015-Mar-26 08:32N 37°56' E 023°37'3 0.1
2015-Mar-25 04:28N 37°57' E 023°33'1 0.9
2015-Mar-25 03:33N 37°57' E 023°34'0 0.0
2015-Mar-25 02:33N 37°57' E 023°34'0 0.1
2015-Mar-25 01:33N 37°57' E 023°34'0 0.0
2015-Mar-25 00:33N 37°57' E 023°34'3 3.0
2015-Mar-24 23:26N 37°57' E 023°38'1 0.3
2015-Mar-24 21:33N 37°56' E 023°38'3 3.2
2015-Mar-24 20:33N 37°57' E 023°34'0 0.0
2015-Mar-24 19:33N 37°57' E 023°34'0 0.0
2015-Mar-24 18:33N 37°57' E 023°34'0 0.0
2015-Mar-24 17:33N 37°57' E 023°34'0 0.0
2015-Mar-24 16:33N 37°57' E 023°34'0 0.0
2015-Mar-24 15:33N 37°57' E 023°34'1 0.1
2015-Mar-23 15:29N 37°58' E 023°33'4 2.0
2015-Mar-23 13:18N 37°57' E 023°38'1 2.0
2015-Mar-23 12:33N 37°56' E 023°37'7 0.2
2015-Mar-22 08:21N 38°02' E 023°32'2 0.6
2015-Mar-22 04:33N 38°00' E 023°33'3 2.9
2015-Mar-22 03:31N 37°57' E 023°34'0 0.0
2015-Mar-22 02:33N 37°57' E 023°34'0 0.0
2015-Mar-22 01:31N 37°57' E 023°34'0 0.0
2015-Mar-22 00:33N 37°57' E 023°34'3 3.1
2015-Mar-21 23:34N 37°56' E 023°38'0 0.2
2015-Mar-21 21:32N 37°57' E 023°38'3 3.4
2015-Mar-21 20:34N 37°57' E 023°34'0 0.0
2015-Mar-21 19:33N 37°57' E 023°34'0 0.0
2015-Mar-21 18:33N 37°57' E 023°34'0 0.0
2015-Mar-21 17:33N 37°57' E 023°34'0 0.0
2015-Mar-21 16:33N 37°57' E 023°34'5 5.0
2015-Mar-21 15:30N 38°02' E 023°32'0 0.0
2015-Mar-20 09:25N 38°02' E 023°32'5 0.3
2015-Mar-19 15:08N 37°58' E 023°33'4 7.1
2015-Mar-19 14:33N 37°57' E 023°38'0 0.0
2015-Mar-19 13:09N 37°57' E 023°38'3 4.8
2015-Mar-19 12:33N 37°57' E 023°35'0 0.3
2015-Mar-19 11:32N 37°57' E 023°35'0 0.0
2015-Mar-19 10:33N 37°57' E 023°35'0 0.0
2015-Mar-19 09:33N 37°57' E 023°35'0 0.0
2015-Mar-19 08:32N 37°57' E 023°35'0 0.0
2015-Mar-19 07:33N 37°57' E 023°35'0 0.0
2015-Mar-19 06:33N 37°57' E 023°35'0 0.0
2015-Mar-19 05:26N 37°57' E 023°35'0 0.0
2015-Mar-19 04:29N 37°57' E 023°35'0 0.0
2015-Mar-19 03:33N 37°57' E 023°35'0 0.0
2015-Mar-19 02:31N 37°57' E 023°35'0 0.0
2015-Mar-19 01:33N 37°57' E 023°35'1 0.7
2015-Mar-19 00:32N 37°57' E 023°35'1 0.4
2015-Mar-18 21:33N 37°56' E 023°37'2 1.7
2015-Mar-18 20:29N 37°57' E 023°35'0 0.0
2015-Mar-18 19:29N 37°57' E 023°35'0 0.0
2015-Mar-18 18:32N 37°57' E 023°35'0 0.0
2015-Mar-18 17:33N 37°57' E 023°35'0 0.0
2015-Mar-18 16:33N 37°57' E 023°35'0 0.0
2015-Mar-18 15:32N 37°57' E 023°35'0 0.0
2015-Mar-18 14:33N 37°57' E 023°35'5 3.6
2015-Mar-18 13:12N 38°02' E 023°32'0 0.0
2015-Mar-18 12:20N 38°02' E 023°32'1 0.4
2015-Mar-18 09:31N 38°02' E 023°34'1 0.3
2015-Mar-18 05:33N 38°02' E 023°32'  

Dump ship's entire track history